createdAt,value
2018-07-10T00:02:38.624Z,99.90
2018-07-10T00:07:29.232Z,99.90
2018-07-10T00:10:24.042Z,99.90
2018-07-10T00:12:52.622Z,99.90
2018-07-10T00:15:21.693Z,99.90
2018-07-10T00:17:50.265Z,99.90
2018-07-10T00:20:18.914Z,99.90
2018-07-10T00:22:47.517Z,99.90
2018-07-10T00:25:16.078Z,99.90
2018-07-10T00:30:12.964Z,99.90
2018-07-10T00:32:41.757Z,99.90
2018-07-10T00:35:11.878Z,99.90
2018-07-10T00:37:41.070Z,99.90
2018-07-10T00:40:09.717Z,99.90
2018-07-10T00:42:38.952Z,99.90
2018-07-10T00:45:07.590Z,99.90
2018-07-10T00:47:36.325Z,99.90
2018-07-10T00:50:04.983Z,99.90
2018-07-10T00:52:34.738Z,99.90
2018-07-10T00:55:04.190Z,99.90
2018-07-10T00:57:33.473Z,99.90
2018-07-10T01:00:03.102Z,99.90
2018-07-10T01:02:32.001Z,99.90
2018-07-10T01:05:00.697Z,99.90
2018-07-10T01:07:29.366Z,99.90
2018-07-10T01:09:58.645Z,99.90
2018-07-10T01:12:28.224Z,99.90
2018-07-10T01:14:57.046Z,99.90
2018-07-10T01:17:26.443Z,99.90
2018-07-10T01:19:55.110Z,99.90
2018-07-10T01:22:23.736Z,99.90
2018-07-10T01:24:52.808Z,99.90
2018-07-10T01:27:21.462Z,99.90
2018-07-10T01:29:50.046Z,99.90
2018-07-10T01:32:18.821Z,99.90
2018-07-10T01:34:47.371Z,99.90
2018-07-10T01:37:16.601Z,99.90
2018-07-10T01:42:13.997Z,99.90
2018-07-10T01:44:43.237Z,99.90
2018-07-10T01:47:11.805Z,99.90
2018-07-10T01:49:40.433Z,99.90
2018-07-10T01:52:09.042Z,99.90
2018-07-10T01:54:37.626Z,99.90
2018-07-10T01:57:06.257Z,99.90
2018-07-10T01:59:35.426Z,99.90
2018-07-10T02:02:04.077Z,99.90
2018-07-10T02:07:01.600Z,99.90
2018-07-10T02:09:30.213Z,99.90
2018-07-10T02:11:58.838Z,99.90
2018-07-10T02:16:56.282Z,99.90
2018-07-10T02:19:24.933Z,99.90
2018-07-10T02:21:53.570Z,99.90
2018-07-10T02:26:53.665Z,99.90
2018-07-10T02:29:22.253Z,99.90
2018-07-10T02:31:51.022Z,99.90
2018-07-10T02:34:19.670Z,99.90
2018-07-10T02:41:44.693Z,99.90
2018-07-10T02:44:13.548Z,99.90
2018-07-10T02:46:42.173Z,99.90
2018-07-10T02:49:16.805Z,99.90
2018-07-10T02:54:26.299Z,99.90
2018-07-10T02:56:56.472Z,99.90
2018-07-10T02:59:37.622Z,99.90
2018-07-10T03:02:22.718Z,99.90
2018-07-10T03:05:00.122Z,99.90
2018-07-10T03:09:58.613Z,99.90
2018-07-10T03:12:28.985Z,99.90
2018-07-10T03:15:00.602Z,99.90
2018-07-10T03:17:29.279Z,99.90
2018-07-10T03:19:59.913Z,99.90
2018-07-10T03:22:28.559Z,99.90
2018-07-10T03:24:57.973Z,99.90
2018-07-10T03:27:26.593Z,99.90
2018-07-10T03:29:55.566Z,99.90
2018-07-10T03:32:24.203Z,99.90
2018-07-10T03:34:52.806Z,99.90
2018-07-10T03:37:21.474Z,99.90
2018-07-10T03:39:50.058Z,99.90
2018-07-10T03:42:19.341Z,99.90
2018-07-10T03:47:19.553Z,99.90
2018-07-10T03:49:48.714Z,99.90
2018-07-10T03:52:24.736Z,99.90
2018-07-10T03:54:53.613Z,99.90
2018-07-10T03:57:24.497Z,99.90
2018-07-10T03:59:55.850Z,99.90
2018-07-10T04:02:25.909Z,99.90
2018-07-10T04:04:54.965Z,99.90
2018-07-10T04:07:24.046Z,99.90
2018-07-10T04:09:54.793Z,99.90
2018-07-10T04:12:27.967Z,99.90
2018-07-10T04:14:56.565Z,99.90
2018-07-10T04:17:29.437Z,99.90
2018-07-10T04:19:58.069Z,99.90
2018-07-10T04:22:26.705Z,99.90
2018-07-10T04:30:14.010Z,99.90
2018-07-10T04:32:43.213Z,99.90
2018-07-10T04:35:15.431Z,99.90
2018-07-10T04:37:49.625Z,99.90
2018-07-10T04:40:19.585Z,99.90
2018-07-10T04:43:00.118Z,99.90
2018-07-10T04:48:46.573Z,99.90
2018-07-10T04:51:28.951Z,99.90
2018-07-10T04:56:30.089Z,99.90
2018-07-10T04:58:58.802Z,99.90
2018-07-10T05:04:02.554Z,99.90
2018-07-10T05:06:33.741Z,99.90
2018-07-10T05:09:02.390Z,99.90
2018-07-10T05:11:34.007Z,99.90
2018-07-10T05:14:02.654Z,99.90
2018-07-10T05:16:31.294Z,99.90
2018-07-10T05:24:05.628Z,99.90
2018-07-10T05:26:35.025Z,99.90
2018-07-10T05:29:04.197Z,99.90
2018-07-10T05:34:01.399Z,99.90
2018-07-10T05:36:30.045Z,99.90
2018-07-10T05:39:01.037Z,99.90
2018-07-10T05:43:58.322Z,99.90
2018-07-10T05:46:27.099Z,99.90
2018-07-10T05:49:03.545Z,99.90
2018-07-10T05:54:06.610Z,99.90
2018-07-10T05:56:36.804Z,99.90
2018-07-10T05:59:08.852Z,99.90
2018-07-10T06:04:08.731Z,99.90
2018-07-10T06:06:37.347Z,99.90
2018-07-10T06:09:07.045Z,99.90
2018-07-10T06:11:36.872Z,99.90
2018-07-10T06:14:05.539Z,99.90
2018-07-10T06:16:35.921Z,99.90
2018-07-10T06:21:39.005Z,99.90
2018-07-10T06:24:10.938Z,99.90
2018-07-10T06:26:40.457Z,99.90
2018-07-10T06:29:09.706Z,99.90
2018-07-10T06:31:50.142Z,99.90
2018-07-10T06:34:20.108Z,99.90
2018-07-10T06:36:58.994Z,99.90
2018-07-10T06:42:04.981Z,99.90
2018-07-10T06:47:10.569Z,99.90
2018-07-10T06:49:39.214Z,99.90
2018-07-10T06:52:09.648Z,99.90
2018-07-10T06:57:49.571Z,99.90
2018-07-10T07:05:16.494Z,99.90
2018-07-10T07:07:45.696Z,99.90
2018-07-10T07:10:15.373Z,99.90
2018-07-10T07:12:44.897Z,99.90
2018-07-10T07:15:18.584Z,99.90
2018-07-10T07:17:48.786Z,99.50
2018-07-10T07:20:17.477Z,99.70
2018-07-10T07:22:46.397Z,99.50
2018-07-10T07:25:14.993Z,99.30
2018-07-10T07:27:43.588Z,99.20
2018-07-10T07:30:13.170Z,98.90
2018-07-10T07:32:42.602Z,99.30
2018-07-10T07:35:11.443Z,98.40
2018-07-10T07:37:41.278Z,98.30
2018-07-10T07:40:11.307Z,98.50
2018-07-10T07:42:40.473Z,98.60
2018-07-10T07:45:10.159Z,98.70
2018-07-10T07:47:39.282Z,98.70
2018-07-10T07:50:07.925Z,98.50
2018-07-10T07:55:05.933Z,97.70
2018-07-10T07:57:34.838Z,97.90
2018-07-10T08:00:04.041Z,97.90
2018-07-10T08:05:01.099Z,97.00
2018-07-10T08:07:29.682Z,96.90
2018-07-10T08:09:58.955Z,96.50
2018-07-10T08:14:59.823Z,96.20
2018-07-10T08:17:28.997Z,96.10
2018-07-10T08:19:58.683Z,95.40
2018-07-10T08:22:27.878Z,95.30
2018-07-10T08:24:56.585Z,95.00
2018-07-10T08:27:26.157Z,94.70
2018-07-10T08:29:55.730Z,94.10
2018-07-10T08:32:27.013Z,94.50
2018-07-10T08:34:55.798Z,93.60
2018-07-10T08:37:24.442Z,93.80
2018-07-10T08:42:21.328Z,92.80
2018-07-10T08:44:50.010Z,92.90
2018-07-10T08:47:18.701Z,92.60
2018-07-10T08:49:47.797Z,92.30
2018-07-10T08:52:16.501Z,91.10
2018-07-10T08:54:45.191Z,91.10
2018-07-10T08:57:13.873Z,91.40
2018-07-10T08:59:42.694Z,91.00
2018-07-10T09:02:19.546Z,91.30
2018-07-10T09:04:48.822Z,91.00
2018-07-10T09:07:17.508Z,90.10
2018-07-10T09:09:47.708Z,90.10
2018-07-10T09:17:12.829Z,88.20
2018-07-10T09:19:41.785Z,88.60
2018-07-10T09:22:12.831Z,88.10
2018-07-10T09:24:54.912Z,88.30
2018-07-10T09:27:24.566Z,89.70
2018-07-10T09:29:53.296Z,89.40
2018-07-10T09:32:27.720Z,89.70
2018-07-10T09:37:32.358Z,91.40
2018-07-10T09:40:08.023Z,92.00
2018-07-10T09:42:40.469Z,92.30
2018-07-10T09:47:37.317Z,92.60
2018-07-10T09:50:06.024Z,92.00
2018-07-10T09:52:34.853Z,92.60
2018-07-10T09:55:04.020Z,92.50
2018-07-10T10:00:02.572Z,91.80
2018-07-10T10:02:31.986Z,91.30
2018-07-10T10:05:02.106Z,90.90
2018-07-10T10:07:32.189Z,90.50
2018-07-10T10:10:01.834Z,90.90
2018-07-10T10:12:30.905Z,90.70
2018-07-10T10:15:29.682Z,90.00
2018-07-10T10:22:56.112Z,89.90
2018-07-10T10:25:25.524Z,90.40
2018-07-10T10:30:22.641Z,90.50
2018-07-10T10:35:19.915Z,89.40
2018-07-10T10:37:48.533Z,90.30
2018-07-10T10:40:17.313Z,91.00
2018-07-10T10:42:46.586Z,91.40
2018-07-10T10:45:15.341Z,91.70
2018-07-10T10:47:44.213Z,91.30
2018-07-10T10:50:12.843Z,91.20
2018-07-10T10:52:41.484Z,90.60
2018-07-10T10:57:39.696Z,90.00
2018-07-10T11:00:09.053Z,90.60
2018-07-10T11:02:37.788Z,89.00
2018-07-10T11:05:06.874Z,88.60
2018-07-10T11:10:05.562Z,87.40
2018-07-10T11:15:04.943Z,86.00
2018-07-10T11:17:40.246Z,82.00
2018-07-10T11:22:56.475Z,81.60
2018-07-10T11:25:27.049Z,82.70
2018-07-10T11:28:05.503Z,82.50
2018-07-10T11:33:04.469Z,82.70
2018-07-10T11:35:33.875Z,82.50
2018-07-10T11:38:05.965Z,83.00
2018-07-10T11:40:35.806Z,83.60
2018-07-10T11:43:06.894Z,83.80
2018-07-10T11:45:35.732Z,82.20
2018-07-10T11:48:04.317Z,83.70
2018-07-10T11:53:01.553Z,83.00
2018-07-10T11:55:30.421Z,83.00
2018-07-10T11:57:59.309Z,83.90
2018-07-10T12:00:28.523Z,83.90
2018-07-10T12:02:57.411Z,83.30
2018-07-10T12:05:26.635Z,82.00
2018-07-10T12:10:31.983Z,83.90
2018-07-10T12:13:00.609Z,81.80
2018-07-10T12:15:29.255Z,81.50
2018-07-10T12:17:58.967Z,81.40
2018-07-10T12:20:34.631Z,82.10
2018-07-10T12:23:05.785Z,82.80
2018-07-10T12:25:37.374Z,81.90
2018-07-10T12:28:08.086Z,82.50
2018-07-10T12:33:07.922Z,79.20
2018-07-10T12:35:36.614Z,80.20
2018-07-10T12:38:05.271Z,80.10
2018-07-10T12:40:34.348Z,79.50
2018-07-10T12:43:03.577Z,80.80
2018-07-10T12:48:00.499Z,80.60
2018-07-10T12:50:30.930Z,80.60
2018-07-10T12:53:00.457Z,80.30
2018-07-10T12:55:39.154Z,79.70
2018-07-10T13:00:38.940Z,79.30
2018-07-10T13:05:44.056Z,81.30
2018-07-10T13:08:14.650Z,81.50
2018-07-10T13:10:43.733Z,81.10
2018-07-10T13:13:13.370Z,81.30
2018-07-10T13:15:42.077Z,81.60
2018-07-10T13:18:11.364Z,81.20
2018-07-10T13:20:40.477Z,81.20
2018-07-10T13:23:09.350Z,80.00
2018-07-10T13:25:38.016Z,80.10
2018-07-10T13:28:06.970Z,80.10
2018-07-10T13:33:04.955Z,80.30
2018-07-10T13:35:35.094Z,80.60
2018-07-10T13:40:33.926Z,80.50
2018-07-10T13:43:02.789Z,81.10
2018-07-10T13:48:01.961Z,81.40
2018-07-10T13:50:32.115Z,80.50
2018-07-10T13:53:02.001Z,82.60
2018-07-10T13:55:31.461Z,83.00
2018-07-10T13:58:14.034Z,83.70
2018-07-10T14:00:44.814Z,82.60
2018-07-10T14:03:13.392Z,82.90
2018-07-10T14:05:43.059Z,82.90
2018-07-10T14:08:11.670Z,81.40
2018-07-10T14:13:08.665Z,82.40
2018-07-10T14:15:37.583Z,81.30
2018-07-10T14:18:06.676Z,80.80
2018-07-10T14:20:46.827Z,79.70
2018-07-10T14:23:16.462Z,80.40
2018-07-10T14:25:45.057Z,80.70
2018-07-10T14:28:14.449Z,81.90
2018-07-10T14:30:43.069Z,81.50
2018-07-10T14:33:12.109Z,81.00
2018-07-10T14:35:40.729Z,81.50
2018-07-10T14:38:10.462Z,81.40
2018-07-10T14:40:44.246Z,81.90
2018-07-10T14:43:14.914Z,81.70
2018-07-10T14:45:44.578Z,81.00
2018-07-10T14:48:13.227Z,80.70
2018-07-10T14:50:41.865Z,82.30
2018-07-10T14:53:10.643Z,82.70
2018-07-10T14:55:39.501Z,81.60
2018-07-10T14:58:08.570Z,82.10
2018-07-10T15:00:37.210Z,82.30
2018-07-10T15:03:05.842Z,81.60
2018-07-10T15:05:34.445Z,81.90
2018-07-10T15:08:03.136Z,82.80
2018-07-10T15:10:31.729Z,82.20
2018-07-10T15:13:01.511Z,81.60
2018-07-10T15:15:30.167Z,82.00
2018-07-10T15:18:04.447Z,81.60
2018-07-10T15:20:33.489Z,81.80
2018-07-10T15:23:04.289Z,81.30
2018-07-10T15:25:32.851Z,82.20
2018-07-10T15:28:01.778Z,82.20
2018-07-10T15:30:30.542Z,81.70
2018-07-10T15:32:59.850Z,81.50
2018-07-10T15:35:28.451Z,80.90
2018-07-10T15:37:58.417Z,81.40
2018-07-10T15:40:27.055Z,82.50
2018-07-10T15:42:56.049Z,81.80
2018-07-10T15:45:24.682Z,81.70
2018-07-10T15:47:54.505Z,81.80
2018-07-10T15:50:23.163Z,82.20
2018-07-10T15:55:20.027Z,82.90
2018-07-10T16:00:17.721Z,82.60
2018-07-10T16:02:46.342Z,83.10
2018-07-10T16:05:15.650Z,83.60
2018-07-10T16:07:44.258Z,83.00
2018-07-10T16:10:13.742Z,82.60
2018-07-10T16:12:42.775Z,82.60
2018-07-10T16:17:39.765Z,83.50
2018-07-10T16:20:10.142Z,84.00
2018-07-10T16:22:40.850Z,84.10
2018-07-10T16:25:41.592Z,82.70
2018-07-10T16:28:14.481Z,83.70
2018-07-10T16:30:43.118Z,84.30
2018-07-10T16:33:13.795Z,83.20
2018-07-10T16:35:43.059Z,83.20
2018-07-10T16:38:11.678Z,83.40
2018-07-10T16:40:40.305Z,83.70
2018-07-10T16:43:14.185Z,83.30
2018-07-10T16:45:42.903Z,84.80
2018-07-10T16:51:22.587Z,84.40
2018-07-10T16:53:55.729Z,85.30
2018-07-10T16:56:25.057Z,85.90
2018-07-10T16:58:55.335Z,86.60
2018-07-10T17:01:25.351Z,87.60
2018-07-10T17:03:54.745Z,87.70
2018-07-10T17:06:24.623Z,88.60
2018-07-10T17:08:53.317Z,89.60
2018-07-10T17:13:50.118Z,89.50
2018-07-10T17:16:24.292Z,89.40
2018-07-10T17:21:21.162Z,90.10
2018-07-10T17:23:51.219Z,89.60
2018-07-10T17:26:19.846Z,89.40
2018-07-10T17:28:48.447Z,89.40
2018-07-10T17:33:45.958Z,90.30
2018-07-10T17:36:14.600Z,90.50
2018-07-10T17:41:12.118Z,90.70
2018-07-10T17:43:40.976Z,90.50
2018-07-10T17:48:37.839Z,90.80
2018-07-10T17:56:03.020Z,90.90
2018-07-10T17:58:31.793Z,91.20
2018-07-10T18:01:00.556Z,91.10
2018-07-10T18:03:29.200Z,91.50
2018-07-10T18:05:57.853Z,91.60
2018-07-10T18:08:26.591Z,91.60
2018-07-10T18:10:55.081Z,91.70
2018-07-10T18:13:23.719Z,91.80
2018-07-10T18:15:52.328Z,91.80
2018-07-10T18:18:20.879Z,92.00
2018-07-10T18:20:49.523Z,92.30
2018-07-10T18:25:46.955Z,92.80
2018-07-10T18:28:15.571Z,92.70
2018-07-10T18:30:44.843Z,92.70
2018-07-10T18:33:13.817Z,93.00
2018-07-10T18:35:42.408Z,92.80
2018-07-10T18:38:11.062Z,92.90
2018-07-10T18:43:07.887Z,93.50
2018-07-10T18:45:36.518Z,93.60
2018-07-10T18:48:05.366Z,93.80
2018-07-10T18:50:34.055Z,93.90
2018-07-10T18:53:03.337Z,94.00
2018-07-10T18:55:31.992Z,94.30
2018-07-10T18:58:19.724Z,94.50
2018-07-10T19:00:58.326Z,94.80
2018-07-10T19:03:28.957Z,95.00
2018-07-10T19:08:28.382Z,95.30
2018-07-10T19:10:57.029Z,95.40
2018-07-10T19:13:25.677Z,95.50
2018-07-10T19:15:54.428Z,95.90
2018-07-10T19:18:23.297Z,95.80
2018-07-10T19:22:01.697Z,96.00
2018-07-10T19:24:31.416Z,96.10
2018-07-10T19:27:00.738Z,96.40
2018-07-10T19:30:04.479Z,96.50
2018-07-10T19:32:33.379Z,96.40
2018-07-10T19:35:02.652Z,96.40
2018-07-10T19:40:00.859Z,96.40
2018-07-10T19:45:00.384Z,96.60
2018-07-10T19:52:26.506Z,96.70
2018-07-10T19:54:56.101Z,96.80
2018-07-10T19:57:34.950Z,96.90
2018-07-10T20:00:04.218Z,96.80
2018-07-10T20:02:33.306Z,96.90
2018-07-10T20:05:05.442Z,97.00
2018-07-10T20:11:09.268Z,97.10
2018-07-10T20:16:29.357Z,97.20
2018-07-10T20:19:13.048Z,97.30
2018-07-10T20:21:51.029Z,97.20
2018-07-10T20:27:25.965Z,97.40
2018-07-10T20:32:36.564Z,97.40
2018-07-10T20:37:39.086Z,97.60
2018-07-10T20:40:07.715Z,97.60
2018-07-10T20:42:40.270Z,97.50
2018-07-10T20:45:09.575Z,97.60
2018-07-10T20:47:46.539Z,97.60
2018-07-10T20:50:19.430Z,97.80
2018-07-10T20:52:54.706Z,98.00
2018-07-10T20:55:25.525Z,98.50
2018-07-10T20:58:01.145Z,98.50
2018-07-10T21:00:36.431Z,98.70
2018-07-10T21:04:14.400Z,98.70
2018-07-10T21:07:04.389Z,99.20
2018-07-10T21:09:41.652Z,99.90
2018-07-10T21:12:17.476Z,99.90
2018-07-10T21:14:59.984Z,99.90
2018-07-10T21:17:33.721Z,99.90
2018-07-10T21:25:13.835Z,99.90
2018-07-10T21:28:48.728Z,99.90
2018-07-10T21:31:23.946Z,99.90
2018-07-10T21:34:11.721Z,99.90
2018-07-10T21:37:01.962Z,99.90
2018-07-10T21:40:42.600Z,99.90
2018-07-10T21:43:20.914Z,99.90
2018-07-10T21:46:58.665Z,99.90
2018-07-10T21:49:39.413Z,99.90
2018-07-10T21:52:08.014Z,99.90
2018-07-10T21:54:36.662Z,99.90
2018-07-10T21:57:05.965Z,99.90
2018-07-10T21:59:38.008Z,99.90
2018-07-10T22:04:38.510Z,99.90
2018-07-10T22:07:10.908Z,99.90
2018-07-10T22:09:40.281Z,99.90
2018-07-10T22:12:11.047Z,99.90
2018-07-10T22:14:39.851Z,99.90
2018-07-10T22:19:41.012Z,99.90
2018-07-10T22:22:09.649Z,99.90
2018-07-10T22:24:39.358Z,99.90
2018-07-10T22:27:07.991Z,99.90
2018-07-10T22:32:16.146Z,99.90
2018-07-10T22:34:44.855Z,99.90
2018-07-10T22:37:14.797Z,99.90
2018-07-10T22:39:44.080Z,99.90
2018-07-10T22:42:12.760Z,99.90
2018-07-10T22:44:45.075Z,99.90
2018-07-10T22:47:13.711Z,99.90
2018-07-10T22:49:42.311Z,99.90
2018-07-10T22:52:10.945Z,99.90
2018-07-10T22:57:12.307Z,99.90
2018-07-10T22:59:42.908Z,99.90
2018-07-10T23:02:11.521Z,99.90
2018-07-10T23:04:40.466Z,99.90
2018-07-10T23:07:09.912Z,99.90
2018-07-10T23:09:38.538Z,99.90
2018-07-10T23:12:07.533Z,99.90
2018-07-10T23:14:36.175Z,99.90
2018-07-10T23:17:04.765Z,99.90
2018-07-10T23:19:33.565Z,99.90
2018-07-10T23:24:31.598Z,99.90
2018-07-10T23:27:00.198Z,99.90
2018-07-10T23:29:36.770Z,99.90
2018-07-10T23:32:07.083Z,99.90
2018-07-10T23:34:35.754Z,99.90
2018-07-10T23:37:07.198Z,99.90
2018-07-10T23:39:43.418Z,99.90
2018-07-10T23:42:25.816Z,99.90
2018-07-10T23:44:55.386Z,99.90
2018-07-10T23:47:34.158Z,99.90
2018-07-10T23:50:12.866Z,99.90
2018-07-10T23:53:53.845Z,99.90
2018-07-10T23:56:22.934Z,99.90
2018-07-10T23:58:51.732Z,99.90
